createdAt,value
2019-04-11T00:00:59.692Z,16.32
2019-04-11T00:02:34.458Z,16.82
2019-04-11T00:04:10.143Z,17.05
2019-04-11T00:05:45.347Z,20.25
2019-04-11T00:07:20.408Z,18.98
2019-04-11T00:08:56.392Z,18.40
2019-04-11T00:10:31.532Z,16.17
2019-04-11T00:12:06.809Z,18.90
2019-04-11T00:13:41.764Z,16.52
2019-04-11T00:15:16.529Z,18.55
2019-04-11T00:16:51.367Z,17.85
2019-04-11T00:18:27.067Z,20.17
2019-04-11T00:20:02.223Z,17.05
2019-04-11T00:21:38.005Z,17.25
2019-04-11T00:23:14.202Z,16.67
2019-04-11T00:24:49.206Z,18.30
2019-04-11T00:26:24.394Z,18.25
2019-04-11T00:27:59.523Z,15.25
2019-04-11T00:29:34.512Z,17.35
2019-04-11T00:31:09.481Z,17.98
2019-04-11T00:32:45.453Z,17.82
2019-04-11T00:34:20.641Z,16.42
2019-04-11T00:35:55.719Z,17.82
2019-04-11T00:37:30.586Z,15.93
2019-04-11T00:39:08.179Z,21.75
2019-04-11T00:40:43.739Z,18.57
2019-04-11T00:42:18.736Z,17.15
2019-04-11T00:43:54.645Z,16.77
2019-04-11T00:45:29.778Z,18.32
2019-04-11T00:47:04.796Z,16.93
2019-04-11T00:48:39.717Z,16.10
2019-04-11T00:50:14.900Z,16.57
2019-04-11T00:51:50.078Z,17.20
2019-04-11T00:53:25.705Z,18.40
2019-04-11T00:55:00.752Z,15.05
2019-04-11T00:56:36.630Z,19.75
2019-04-11T00:58:11.820Z,18.62
2019-04-11T00:59:46.822Z,15.68
2019-04-11T01:01:21.911Z,18.82
2019-04-11T01:02:56.415Z,16.32
2019-04-11T01:04:31.032Z,16.55
2019-04-11T01:06:05.767Z,15.63
2019-04-11T01:07:40.914Z,16.97
2019-04-11T01:09:15.880Z,16.10
2019-04-11T01:10:50.421Z,17.87
2019-04-11T01:12:24.889Z,19.70
2019-04-11T01:13:59.533Z,18.92
2019-04-11T01:15:34.018Z,19.95
2019-04-11T01:17:09.366Z,18.87
2019-04-11T01:18:44.466Z,16.93
2019-04-11T01:20:19.544Z,17.32
2019-04-11T01:21:55.002Z,20.62
2019-04-11T01:23:30.932Z,19.12
2019-04-11T01:25:08.399Z,16.15
2019-04-11T01:26:43.513Z,17.62
2019-04-11T01:28:18.603Z,20.50
2019-04-11T01:29:53.631Z,18.12
2019-04-11T01:31:30.038Z,19.67
2019-04-11T01:33:06.573Z,21.33
2019-04-11T01:34:42.609Z,18.17
2019-04-11T01:36:18.517Z,18.32
2019-04-11T01:37:53.519Z,17.37
2019-04-11T01:39:49.675Z,17.30
2019-04-11T01:41:24.679Z,20.15
2019-04-11T01:42:59.721Z,21.45
2019-04-11T01:44:34.707Z,20.43
2019-04-11T01:46:09.715Z,22.20
2019-04-11T01:47:53.236Z,19.00
2019-04-11T01:49:28.369Z,19.20
2019-04-11T01:51:03.225Z,20.27
2019-04-11T01:52:38.310Z,20.05
2019-04-11T01:54:13.534Z,18.57
2019-04-11T01:55:48.642Z,19.67
2019-04-11T01:57:23.411Z,17.23
2019-04-11T01:58:59.420Z,16.85
2019-04-11T02:00:52.534Z,18.35
2019-04-11T02:02:36.808Z,20.15
2019-04-11T02:04:19.893Z,19.10
2019-04-11T02:05:54.970Z,18.07
2019-04-11T02:07:30.920Z,18.60
2019-04-11T02:09:13.768Z,17.95
2019-04-11T02:10:48.973Z,21.33
2019-04-11T02:12:23.771Z,21.10
2019-04-11T02:14:08.024Z,22.95
2019-04-11T02:15:35.198Z,20.97
2019-04-11T02:17:10.434Z,19.45
2019-04-11T02:18:45.725Z,18.62
2019-04-11T02:20:20.860Z,20.30
2019-04-11T02:22:04.194Z,20.57
2019-04-11T02:23:55.305Z,21.25
2019-04-11T02:25:47.603Z,21.65
2019-04-11T02:27:26.018Z,18.02
2019-04-11T02:29:01.410Z,20.05
2019-04-11T02:30:40.644Z,19.42
2019-04-11T02:32:15.714Z,19.67
2019-04-11T02:33:51.351Z,18.57
2019-04-11T02:35:26.969Z,19.67
2019-04-11T02:37:02.461Z,19.50
2019-04-11T02:38:38.919Z,19.35
2019-04-11T02:40:15.445Z,19.32
2019-04-11T02:41:52.700Z,21.00
2019-04-11T02:43:29.441Z,21.05
2019-04-11T02:45:19.802Z,18.95
2019-04-11T02:46:50.334Z,21.75
2019-04-11T02:48:20.766Z,18.87
2019-04-11T02:49:57.260Z,21.75
2019-04-11T02:51:34.361Z,19.70
2019-04-11T02:53:10.190Z,20.90
2019-04-11T02:54:45.308Z,21.68
2019-04-11T02:56:23.769Z,21.62
2019-04-11T02:58:01.818Z,20.95
2019-04-11T02:59:36.735Z,18.80
2019-04-11T03:01:12.762Z,22.93
2019-04-11T03:02:48.523Z,20.55
2019-04-11T03:04:24.474Z,20.50
2019-04-11T03:06:00.002Z,18.80
2019-04-11T03:07:36.020Z,21.50
2019-04-11T03:09:11.002Z,23.00
2019-04-11T03:10:46.198Z,21.68
2019-04-11T03:12:23.413Z,19.70
2019-04-11T03:14:01.275Z,20.43
2019-04-11T03:15:48.814Z,19.37
2019-04-11T03:17:19.559Z,19.90
2019-04-11T03:19:08.718Z,18.85
2019-04-11T03:20:33.822Z,21.48
2019-04-11T03:22:03.344Z,22.52
2019-04-11T03:23:39.619Z,19.95
2019-04-11T03:25:14.112Z,21.30
2019-04-11T03:26:49.758Z,21.45
2019-04-11T03:28:28.305Z,19.85
2019-04-11T03:30:03.048Z,21.77
2019-04-11T03:34:03.710Z,19.40
2019-04-11T03:35:37.771Z,19.60
2019-04-11T03:38:27.342Z,22.02
2019-04-11T03:39:59.548Z,20.40
2019-04-11T03:41:26.953Z,21.55
2019-04-11T03:43:05.750Z,22.32
2019-04-11T03:44:33.551Z,21.60
2019-04-11T03:46:24.904Z,20.12
2019-04-11T03:47:59.497Z,22.05
2019-04-11T03:49:29.362Z,24.25
2019-04-11T03:50:57.106Z,21.82
2019-04-11T03:52:32.304Z,22.15
2019-04-11T03:54:07.576Z,21.60
2019-04-11T03:55:43.416Z,19.77
2019-04-11T03:57:18.357Z,23.00
2019-04-11T03:58:53.486Z,21.85
2019-04-11T04:00:34.042Z,21.68
2019-04-11T04:02:05.749Z,21.68
2019-04-11T04:03:42.593Z,21.75
2019-04-11T04:05:17.722Z,26.73
2019-04-11T04:06:55.072Z,21.15
2019-04-11T04:08:31.482Z,19.87
2019-04-11T04:10:11.499Z,21.40
2019-04-11T04:11:46.743Z,25.62
2019-04-11T04:13:23.205Z,21.27
2019-04-11T04:15:09.291Z,26.62
2019-04-11T04:17:23.619Z,19.48
2019-04-11T04:19:09.745Z,19.32
2019-04-11T04:21:06.962Z,19.50
2019-04-11T04:22:50.100Z,21.93
2019-04-11T04:24:28.761Z,22.87
2019-04-11T04:26:05.508Z,19.92
2019-04-11T04:27:41.023Z,20.55
2019-04-11T04:29:17.838Z,22.20
2019-04-11T04:30:53.852Z,22.87
2019-04-11T04:32:30.364Z,21.87
2019-04-11T04:34:07.254Z,23.80
2019-04-11T04:35:42.800Z,22.67
2019-04-11T04:37:21.389Z,24.55
2019-04-11T04:38:57.055Z,23.15
2019-04-11T04:40:50.040Z,21.87
2019-04-11T04:42:21.173Z,22.32
2019-04-11T04:43:48.285Z,20.10
2019-04-11T04:45:23.956Z,24.23
2019-04-11T04:47:13.026Z,19.57
2019-04-11T04:48:35.745Z,24.07
2019-04-11T04:50:13.425Z,22.27
2019-04-11T04:51:48.897Z,20.35
2019-04-11T04:53:26.669Z,21.97
2019-04-11T04:55:02.201Z,21.48
2019-04-11T04:56:39.195Z,21.57
2019-04-11T04:58:15.777Z,20.55
2019-04-11T04:59:53.188Z,21.25
2019-04-11T05:01:29.102Z,20.00
2019-04-11T05:03:05.475Z,18.80
2019-04-11T05:04:40.303Z,22.87
2019-04-11T05:06:16.340Z,21.30
2019-04-11T05:07:51.969Z,17.20
2019-04-11T05:09:26.876Z,17.92
2019-04-11T05:11:02.241Z,20.95
2019-04-11T05:12:38.767Z,22.00
2019-04-11T05:14:14.620Z,20.48
2019-04-11T05:16:02.884Z,25.25
2019-04-11T05:17:27.796Z,20.60
2019-04-11T05:19:01.790Z,19.50
2019-04-11T05:20:36.590Z,18.65
2019-04-11T05:22:10.950Z,19.62
2019-04-11T05:23:45.961Z,20.85
2019-04-11T05:25:20.761Z,17.80
2019-04-11T05:26:55.847Z,18.17
2019-04-11T05:28:30.342Z,19.37
2019-04-11T05:30:07.785Z,18.05
2019-04-11T05:31:42.819Z,21.27
2019-04-11T05:33:17.944Z,22.07
2019-04-11T05:34:53.094Z,16.37
2019-04-11T05:36:28.620Z,19.35
2019-04-11T05:38:03.509Z,19.05
2019-04-11T05:39:38.259Z,21.37
2019-04-11T05:41:13.850Z,17.37
2019-04-11T05:42:52.665Z,17.00
2019-04-11T05:44:26.232Z,17.77
2019-04-11T05:46:03.554Z,18.37
2019-04-11T05:47:37.397Z,17.50
2019-04-11T05:49:36.792Z,15.45
2019-04-11T05:51:09.533Z,15.20
2019-04-11T05:52:45.316Z,17.40
2019-04-11T05:54:20.442Z,19.00
2019-04-11T05:55:55.505Z,19.17
2019-04-11T05:57:35.307Z,21.42
2019-04-11T05:59:15.121Z,18.95
2019-04-11T06:01:01.356Z,16.37
2019-04-11T06:02:39.552Z,18.17
2019-04-11T06:04:22.365Z,19.17
2019-04-11T06:06:10.830Z,17.25
2019-04-11T06:07:57.957Z,18.05
2019-04-11T06:09:35.946Z,20.23
2019-04-11T06:11:23.682Z,16.70
2019-04-11T06:13:16.448Z,16.02
2019-04-11T06:15:14.152Z,18.32
2019-04-11T06:16:53.856Z,17.73
2019-04-11T06:18:37.220Z,17.65
2019-04-11T06:20:35.719Z,17.00
2019-04-11T06:22:10.913Z,17.25
2019-04-11T06:24:11.950Z,17.65
2019-04-11T06:25:55.604Z,15.98
2019-04-11T06:27:53.583Z,14.95
2019-04-11T06:29:34.880Z,15.20
2019-04-11T06:31:27.188Z,17.07
2019-04-11T06:33:12.370Z,16.77
2019-04-11T06:34:52.797Z,16.30
2019-04-11T06:37:05.682Z,17.32
2019-04-11T06:38:47.269Z,14.70
2019-04-11T06:40:32.739Z,17.55
2019-04-11T06:42:27.595Z,15.18
2019-04-11T06:44:09.617Z,13.35
2019-04-11T06:45:54.647Z,14.58
2019-04-11T06:47:41.004Z,13.65
2019-04-11T06:49:36.317Z,16.42
2019-04-11T06:51:28.913Z,13.28
2019-04-11T06:53:04.426Z,14.78
2019-04-11T06:54:49.584Z,13.48
2019-04-11T06:56:29.690Z,14.35
2019-04-11T06:58:08.953Z,12.80
2019-04-11T06:59:45.082Z,14.45
2019-04-11T07:01:23.205Z,14.03
2019-04-11T07:02:59.950Z,14.00
2019-04-11T07:04:39.859Z,14.73
2019-04-11T07:06:19.609Z,12.55
2019-04-11T07:07:55.729Z,13.67
2019-04-11T07:09:51.195Z,13.43
2019-04-11T07:11:34.421Z,11.57
2019-04-11T07:13:16.951Z,13.80
2019-04-11T07:14:56.445Z,12.88
2019-04-11T07:16:32.069Z,12.53
2019-04-11T07:18:24.829Z,42.43
2019-04-11T07:20:18.692Z,13.10
2019-04-11T07:21:53.699Z,13.90
2019-04-11T07:23:46.997Z,11.33
2019-04-11T07:25:40.757Z,12.50
2019-04-11T07:27:16.183Z,12.03
2019-04-11T07:29:13.039Z,10.82
2019-04-11T07:31:06.788Z,12.18
2019-04-11T07:32:42.758Z,11.60
2019-04-11T07:34:39.207Z,11.53
2019-04-11T07:36:32.242Z,12.93
2019-04-11T07:38:07.262Z,10.18
2019-04-11T07:39:58.685Z,12.63
2019-04-11T07:42:01.662Z,12.03
2019-04-11T07:43:39.172Z,12.58
2019-04-11T07:45:18.652Z,11.65
2019-04-11T07:47:20.123Z,12.15
2019-04-11T07:48:59.416Z,12.28
2019-04-11T07:50:33.985Z,13.05
2019-04-11T07:52:09.004Z,10.93
2019-04-11T07:53:48.072Z,11.83
2019-04-11T07:55:25.767Z,10.55
2019-04-11T07:57:29.067Z,9.48
2019-04-11T07:59:07.326Z,10.95
2019-04-11T08:00:57.152Z,10.82
2019-04-11T08:02:49.462Z,12.07
2019-04-11T08:04:45.856Z,9.73
2019-04-11T08:06:33.431Z,8.35
2019-04-11T08:08:33.040Z,9.78
2019-04-11T08:10:13.654Z,8.58
2019-04-11T08:12:02.442Z,9.40
2019-04-11T08:13:56.741Z,9.75
2019-04-11T08:15:56.498Z,9.67
2019-04-11T08:17:40.460Z,8.87
2019-04-11T08:19:40.777Z,10.77
2019-04-11T08:21:35.674Z,6.97
2019-04-11T08:23:09.888Z,10.07
2019-04-11T08:25:07.188Z,7.23
2019-04-11T08:26:59.559Z,9.17
2019-04-11T08:28:35.482Z,7.40
2019-04-11T08:30:10.829Z,10.10
2019-04-11T08:32:04.609Z,7.80
2019-04-11T08:33:40.522Z,8.80
2019-04-11T08:35:51.252Z,6.73
2019-04-11T08:37:55.981Z,7.40
2019-04-11T08:39:35.489Z,5.78
2019-04-11T08:41:32.327Z,8.10
2019-04-11T08:43:13.640Z,10.38
2019-04-11T08:44:48.654Z,7.22
2019-04-11T08:46:28.968Z,7.00
2019-04-11T08:48:05.596Z,6.70
2019-04-11T08:49:45.998Z,9.73
2019-04-11T08:51:20.979Z,7.17
2019-04-11T08:53:16.312Z,5.62
2019-04-11T08:55:02.152Z,8.05
2019-04-11T08:56:39.059Z,9.45
2019-04-11T08:58:36.430Z,7.78
2019-04-11T09:00:33.095Z,8.88
2019-04-11T09:02:08.684Z,9.70
2019-04-11T09:04:18.484Z,10.87
2019-04-11T09:06:02.400Z,8.65
2019-04-11T09:07:41.465Z,9.90
2019-04-11T09:09:51.516Z,8.20
2019-04-11T09:11:28.847Z,7.20
2019-04-11T09:13:13.269Z,7.03
2019-04-11T09:15:05.722Z,11.10
2019-04-11T09:17:02.455Z,7.87
2019-04-11T09:18:38.477Z,9.37
2019-04-11T09:20:38.370Z,7.90
2019-04-11T09:22:35.326Z,8.57
2019-04-11T09:24:30.428Z,6.47
2019-04-11T09:26:31.987Z,7.77
2019-04-11T09:28:29.193Z,7.47
2019-04-11T09:30:12.781Z,8.90
2019-04-11T09:32:04.311Z,8.10
2019-04-11T09:33:59.458Z,8.47
2019-04-11T09:35:35.772Z,6.70
2019-04-11T09:37:36.030Z,8.00
2019-04-11T09:39:43.483Z,8.50
2019-04-11T09:41:37.131Z,8.23
2019-04-11T09:43:19.866Z,9.93
2019-04-11T09:45:13.182Z,7.57
2019-04-11T09:47:07.539Z,6.83
2019-04-11T09:49:00.127Z,7.83
2019-04-11T09:50:56.738Z,7.23
2019-04-11T09:52:36.760Z,7.10
2019-04-11T09:54:36.987Z,6.77
2019-04-11T09:56:27.078Z,8.87
2019-04-11T09:58:02.859Z,7.87
2019-04-11T09:59:45.820Z,6.80
2019-04-11T10:01:58.258Z,8.63
2019-04-11T10:03:34.529Z,8.70
2019-04-11T10:05:10.524Z,7.43
2019-04-11T10:06:59.574Z,6.80
2019-04-11T10:08:39.630Z,7.97
2019-04-11T10:10:43.733Z,6.90
2019-04-11T10:12:38.208Z,7.10
2019-04-11T10:14:18.116Z,6.97
2019-04-11T10:16:18.394Z,5.77
2019-04-11T10:18:20.080Z,7.53
2019-04-11T10:19:53.999Z,6.53
2019-04-11T10:21:29.643Z,8.27
2019-04-11T10:23:20.978Z,6.80
2019-04-11T10:25:01.669Z,7.27
2019-04-11T10:26:40.368Z,6.60
2019-04-11T10:28:35.482Z,7.50
2019-04-11T10:30:29.286Z,23.67
2019-04-11T10:32:05.190Z,10.90
2019-04-11T10:33:49.294Z,6.03
2019-04-11T10:35:42.727Z,6.83
2019-04-11T10:37:20.038Z,8.13
2019-04-11T10:39:02.810Z,7.57
2019-04-11T10:41:02.640Z,8.47
2019-04-11T10:42:37.114Z,7.53
2019-04-11T10:44:13.854Z,6.77
2019-04-11T10:45:57.159Z,7.37
2019-04-11T10:47:33.266Z,8.03
2019-04-11T10:49:28.333Z,9.77
2019-04-11T10:51:22.543Z,6.90
2019-04-11T10:53:00.507Z,8.50
2019-04-11T10:54:35.145Z,9.37
2019-04-11T10:56:28.664Z,7.43
2019-04-11T10:58:06.657Z,8.50
2019-04-11T10:59:41.260Z,9.53
2019-04-11T11:01:35.940Z,8.73
2019-04-11T11:03:25.013Z,9.17
2019-04-11T11:05:00.951Z,8.40
2019-04-11T11:06:35.830Z,8.43
2019-04-11T11:08:39.811Z,9.80
2019-04-11T11:10:17.728Z,7.37
2019-04-11T11:12:10.627Z,11.67
2019-04-11T11:14:12.274Z,9.33
2019-04-11T11:15:53.721Z,9.27
2019-04-11T11:17:54.628Z,8.27
2019-04-11T11:19:45.526Z,7.97
2019-04-11T11:21:11.422Z,7.53
2019-04-11T11:23:06.903Z,9.97
2019-04-11T11:24:58.061Z,7.53
2019-04-11T11:26:35.567Z,7.33
2019-04-11T11:28:11.647Z,7.67
2019-04-11T11:30:18.565Z,7.87
2019-04-11T11:32:00.710Z,7.57
2019-04-11T11:33:35.315Z,7.87
2019-04-11T11:35:34.908Z,7.17
2019-04-11T11:37:29.131Z,9.00
2019-04-11T11:39:39.614Z,6.63
2019-04-11T11:41:32.269Z,8.07
2019-04-11T11:43:11.128Z,10.40
2019-04-11T11:44:57.817Z,8.83
2019-04-11T11:46:48.526Z,7.33
2019-04-11T11:48:33.424Z,7.60
2019-04-11T11:50:15.534Z,6.70
2019-04-11T11:52:23.365Z,7.43
2019-04-11T11:54:13.621Z,6.83
2019-04-11T11:55:49.552Z,6.90
2019-04-11T11:57:28.854Z,6.10
2019-04-11T11:59:23.007Z,6.77
2019-04-11T12:01:01.135Z,6.60
2019-04-11T12:02:38.947Z,11.07
2019-04-11T12:04:37.210Z,9.57
2019-04-11T12:06:12.688Z,6.37
2019-04-11T12:07:56.105Z,7.20
2019-04-11T12:09:48.959Z,6.23
2019-04-11T12:11:24.127Z,9.10
2019-04-11T12:13:12.592Z,7.27
2019-04-11T12:15:01.970Z,7.60
2019-04-11T12:17:01.972Z,6.63
2019-04-11T12:18:46.535Z,9.63
2019-04-11T12:20:27.013Z,6.77
2019-04-11T12:22:02.247Z,7.50
2019-04-11T12:24:06.074Z,6.27
2019-04-11T12:25:41.148Z,10.50
2019-04-11T12:27:35.021Z,9.03
2019-04-11T12:29:28.704Z,9.97
2019-04-11T12:31:07.142Z,47.77
2019-04-11T12:32:46.739Z,10.63
2019-04-11T12:34:32.541Z,7.33
2019-04-11T12:36:09.807Z,7.63
2019-04-11T12:37:52.637Z,6.90
2019-04-11T12:39:43.489Z,7.33
2019-04-11T12:41:30.601Z,6.53
2019-04-11T12:43:06.172Z,8.23
2019-04-11T12:44:52.042Z,10.60
2019-04-11T12:46:44.442Z,7.13
2019-04-11T12:48:20.214Z,8.40
2019-04-11T12:50:14.591Z,7.37
2019-04-11T12:52:06.945Z,7.27
2019-04-11T12:53:42.382Z,8.30
2019-04-11T12:55:21.801Z,6.87
2019-04-11T12:57:14.382Z,6.63
2019-04-11T12:59:03.828Z,7.00
2019-04-11T13:00:46.610Z,7.57
2019-04-11T13:02:39.147Z,7.30
2019-04-11T13:04:29.590Z,7.60
2019-04-11T13:06:08.714Z,6.67
2019-04-11T13:08:02.737Z,9.40
2019-04-11T13:09:40.856Z,8.87
2019-04-11T13:11:15.862Z,7.30
2019-04-11T13:13:09.527Z,7.90
2019-04-11T13:15:01.588Z,7.80
2019-04-11T13:16:36.267Z,8.00
2019-04-11T13:18:28.837Z,6.87
2019-04-11T13:20:22.074Z,6.90
2019-04-11T13:22:10.842Z,9.43
2019-04-11T13:24:10.090Z,8.23
2019-04-11T13:26:02.530Z,7.40
2019-04-11T13:27:41.189Z,7.57
2019-04-11T13:29:33.301Z,7.93
2019-04-11T13:31:25.998Z,6.47
2019-04-11T13:33:03.088Z,7.70
2019-04-11T13:34:37.878Z,7.83
2019-04-11T13:36:37.657Z,8.17
2019-04-11T13:38:19.707Z,8.60
2019-04-11T13:40:07.085Z,8.17
2019-04-11T13:42:00.300Z,7.63
2019-04-11T13:43:41.420Z,7.63
2019-04-11T13:45:16.555Z,7.60
2019-04-11T13:47:10.898Z,9.63
2019-04-11T13:49:08.841Z,7.13
2019-04-11T13:51:07.559Z,7.30
2019-04-11T13:53:16.983Z,7.43
2019-04-11T13:55:01.093Z,6.83
2019-04-11T13:56:50.623Z,6.53
2019-04-11T13:58:50.643Z,7.70
2019-04-11T14:00:57.612Z,8.57
2019-04-11T14:02:51.056Z,7.63
2019-04-11T14:04:24.867Z,6.43
2019-04-11T14:06:02.977Z,7.03
2019-04-11T14:07:38.100Z,7.33
2019-04-11T14:09:25.443Z,8.70
2019-04-11T14:11:06.732Z,7.07
2019-04-11T14:12:41.838Z,8.00
2019-04-11T14:14:48.087Z,9.33
2019-04-11T14:16:23.539Z,8.17
2019-04-11T14:18:12.466Z,6.17
2019-04-11T14:20:04.981Z,7.85
2019-04-11T14:21:43.487Z,6.97
2019-04-11T14:23:36.006Z,7.43
2019-04-11T14:25:33.132Z,6.53
2019-04-11T14:27:14.783Z,7.85
2019-04-11T14:29:02.490Z,9.07
2019-04-11T14:30:52.740Z,5.97
2019-04-11T14:32:29.741Z,7.08
2019-04-11T14:34:29.484Z,8.18
2019-04-11T14:36:32.586Z,7.35
2019-04-11T14:38:06.149Z,7.70
2019-04-11T14:39:43.007Z,7.47
2019-04-11T14:41:41.566Z,7.80
2019-04-11T14:43:27.038Z,9.00
2019-04-11T14:45:05.637Z,6.40
2019-04-11T14:46:55.897Z,7.37
2019-04-11T14:48:51.055Z,5.30
2019-04-11T14:50:40.392Z,5.63
2019-04-11T14:52:25.183Z,7.40
2019-04-11T14:54:03.685Z,5.70
2019-04-11T14:55:40.949Z,6.40
2019-04-11T14:57:23.276Z,6.07
2019-04-11T14:59:13.330Z,6.13
2019-04-11T15:00:47.689Z,6.87
2019-04-11T15:02:28.374Z,7.33
2019-04-11T15:04:28.464Z,6.70
2019-04-11T15:06:15.637Z,5.97
2019-04-11T15:07:50.795Z,11.63
2019-04-11T15:09:42.309Z,9.95
2019-04-11T15:11:34.431Z,6.47
2019-04-11T15:13:10.773Z,7.25
2019-04-11T15:15:19.997Z,7.35
2019-04-11T15:17:11.096Z,6.87
2019-04-11T15:18:52.216Z,7.50
2019-04-11T15:20:54.628Z,6.17
2019-04-11T15:22:39.520Z,5.80
2019-04-11T15:24:15.560Z,5.50
2019-04-11T15:26:09.374Z,5.50
2019-04-11T15:28:01.817Z,6.90
2019-04-11T15:29:38.687Z,5.97
2019-04-11T15:31:20.053Z,6.22
2019-04-11T15:33:14.287Z,6.22
2019-04-11T15:34:54.900Z,10.68
2019-04-11T15:36:29.722Z,6.17
2019-04-11T15:38:22.098Z,7.65
2019-04-11T15:40:08.296Z,6.22
2019-04-11T15:41:43.771Z,6.53
2019-04-11T15:43:42.032Z,6.95
2019-04-11T15:45:19.501Z,8.45
2019-04-11T15:46:57.001Z,9.08
2019-04-11T15:49:00.432Z,6.12
2019-04-11T15:50:53.149Z,6.62
2019-04-11T15:52:28.066Z,6.65
2019-04-11T15:54:22.115Z,6.55
2019-04-11T15:56:19.253Z,6.33
2019-04-11T15:57:56.160Z,7.55
2019-04-11T15:59:50.739Z,6.25
2019-04-11T16:01:42.138Z,8.50
2019-04-11T16:03:24.497Z,6.20
2019-04-11T16:05:20.467Z,5.22
2019-04-11T16:07:23.213Z,5.80
2019-04-11T16:09:01.773Z,8.15
2019-04-11T16:10:41.815Z,5.97
2019-04-11T16:12:27.059Z,6.80
2019-04-11T16:14:07.931Z,8.80
2019-04-11T16:15:43.629Z,7.45
2019-04-11T16:17:35.818Z,6.83
2019-04-11T16:19:28.710Z,5.60
2019-04-11T16:21:17.991Z,5.97
2019-04-11T16:23:02.119Z,5.55
2019-04-11T16:24:37.371Z,6.25
2019-04-11T16:26:16.197Z,5.92
2019-04-11T16:28:12.993Z,5.85
2019-04-11T16:29:56.080Z,4.83
2019-04-11T16:31:40.146Z,5.78
2019-04-11T16:33:28.739Z,5.92
2019-04-11T16:35:20.037Z,6.00
2019-04-11T16:36:57.566Z,4.50
2019-04-11T16:38:37.155Z,5.22
2019-04-11T16:40:29.991Z,5.72
2019-04-11T16:42:07.499Z,4.65
2019-04-11T16:43:43.745Z,5.45
2019-04-11T16:45:35.895Z,4.12
2019-04-11T16:47:28.335Z,4.65
2019-04-11T16:49:03.348Z,8.18
2019-04-11T16:50:38.114Z,4.37
2019-04-11T16:52:12.922Z,5.12
2019-04-11T16:53:47.933Z,5.12
2019-04-11T16:55:22.958Z,5.25
2019-04-11T16:56:57.971Z,5.20
2019-04-11T16:58:32.830Z,4.95
2019-04-11T17:00:10.025Z,5.03
2019-04-11T17:01:44.797Z,5.58
2019-04-11T17:03:19.835Z,5.22
2019-04-11T17:04:55.803Z,7.08
2019-04-11T17:06:49.469Z,8.18
2019-04-11T17:08:32.001Z,5.03
2019-04-11T17:10:08.043Z,19.55
2019-04-11T17:11:42.996Z,6.40
2019-04-11T17:13:18.077Z,7.03
2019-04-11T17:14:53.091Z,5.37
2019-04-11T17:16:30.713Z,4.75
2019-04-11T17:18:04.506Z,8.03
2019-04-11T17:19:39.296Z,8.15
2019-04-11T17:21:14.138Z,6.67
2019-04-11T17:22:49.333Z,6.58
2019-04-11T17:24:24.384Z,6.17
2019-04-11T17:25:59.149Z,7.50
2019-04-11T17:27:33.935Z,6.50
2019-04-11T17:29:08.754Z,5.28
2019-04-11T17:30:44.025Z,5.55
2019-04-11T17:32:18.803Z,5.37
2019-04-11T17:33:56.451Z,7.55
2019-04-11T17:35:31.739Z,5.50
2019-04-11T17:37:07.338Z,6.42
2019-04-11T17:38:42.345Z,5.50
2019-04-11T17:40:17.174Z,6.50
2019-04-11T17:41:56.291Z,4.95
2019-04-11T17:43:31.428Z,6.87
2019-04-11T17:45:06.643Z,5.42
2019-04-11T17:46:41.656Z,5.70
2019-04-11T17:48:19.006Z,7.00
2019-04-11T17:49:56.705Z,6.78
2019-04-11T17:51:34.629Z,4.80
2019-04-11T17:53:08.550Z,4.80
2019-04-11T17:54:43.616Z,5.62
2019-04-11T17:56:18.637Z,7.03
2019-04-11T17:57:54.885Z,5.70
2019-04-11T17:59:30.759Z,5.80
2019-04-11T18:01:07.310Z,6.00
2019-04-11T18:02:42.162Z,5.67
2019-04-11T18:04:17.196Z,6.03
2019-04-11T18:05:52.326Z,5.15
2019-04-11T18:07:27.126Z,6.15
2019-04-11T18:09:02.174Z,6.62
2019-04-11T18:10:37.206Z,5.72
2019-04-11T18:12:12.092Z,6.85
2019-04-11T18:13:47.137Z,5.58
2019-04-11T18:15:22.168Z,5.75
2019-04-11T18:17:01.584Z,5.45
2019-04-11T18:18:35.169Z,5.42
2019-04-11T18:20:11.646Z,6.47
2019-04-11T18:21:46.768Z,5.10
2019-04-11T18:23:21.834Z,4.95
2019-04-11T18:24:56.936Z,6.25
2019-04-11T18:26:32.328Z,5.10
2019-04-11T18:28:07.363Z,5.25
2019-04-11T18:29:42.781Z,4.92
2019-04-11T18:31:19.044Z,5.45
2019-04-11T18:32:54.419Z,5.30
2019-04-11T18:34:31.589Z,8.80
2019-04-11T18:36:07.307Z,6.10
2019-04-11T18:37:42.136Z,6.12
2019-04-11T18:39:17.268Z,6.45
2019-04-11T18:40:52.049Z,4.97
2019-04-11T18:42:27.381Z,5.08
2019-04-11T18:44:02.163Z,4.62
2019-04-11T18:45:37.114Z,5.12
2019-04-11T18:47:12.143Z,5.40
2019-04-11T18:48:46.926Z,6.10
2019-04-11T18:50:22.925Z,6.08
2019-04-11T18:51:58.324Z,6.92
2019-04-11T18:53:33.107Z,5.12
2019-04-11T18:55:08.599Z,5.05
2019-04-11T18:56:43.379Z,5.00
2019-04-11T18:58:19.278Z,4.80
2019-04-11T18:59:54.294Z,5.65
2019-04-11T19:01:29.238Z,6.17
2019-04-11T19:03:04.169Z,4.00
2019-04-11T19:04:42.042Z,4.30
2019-04-11T19:06:27.250Z,5.70
2019-04-11T19:07:52.976Z,4.70
2019-04-11T19:09:27.893Z,5.75
2019-04-11T19:11:02.835Z,4.45
2019-04-11T19:12:37.674Z,8.10
2019-04-11T19:14:15.862Z,6.67
2019-04-11T19:15:49.019Z,4.60
2019-04-11T19:17:24.061Z,3.60
2019-04-11T19:19:00.553Z,4.17
2019-04-11T19:20:35.356Z,4.50
2019-04-11T19:22:10.210Z,3.85
2019-04-11T19:23:45.084Z,4.75
2019-04-11T19:25:20.309Z,5.60
2019-04-11T19:26:55.078Z,4.17
2019-04-11T19:28:30.087Z,3.90
2019-04-11T19:30:05.914Z,4.37
2019-04-11T19:31:41.195Z,4.42
2019-04-11T19:33:16.092Z,5.92
2019-04-11T19:34:50.857Z,4.85
2019-04-11T19:36:26.098Z,4.65
2019-04-11T19:38:01.131Z,11.73
2019-04-11T19:39:35.974Z,35.15
2019-04-11T19:41:11.029Z,13.62
2019-04-11T19:42:48.920Z,9.28
2019-04-11T19:44:22.317Z,6.42
2019-04-11T19:45:58.635Z,8.20
2019-04-11T19:47:34.072Z,5.60
2019-04-11T19:49:08.928Z,6.83
2019-04-11T19:50:43.939Z,4.87
2019-04-11T19:52:18.744Z,5.00
2019-04-11T19:53:53.830Z,4.12
2019-04-11T19:55:38.303Z,4.12
2019-04-11T19:57:13.310Z,3.87
2019-04-11T19:58:48.078Z,5.35
2019-04-11T20:00:23.113Z,5.00
2019-04-11T20:01:58.007Z,5.30
2019-04-11T20:03:32.792Z,4.45
2019-04-11T20:05:07.562Z,3.58
2019-04-11T20:06:42.596Z,5.40
2019-04-11T20:08:17.867Z,4.85
2019-04-11T20:09:52.633Z,4.50
2019-04-11T20:11:29.329Z,5.22
2019-04-11T20:13:04.481Z,4.62
2019-04-11T20:14:39.612Z,5.35
2019-04-11T20:16:14.400Z,4.97
2019-04-11T20:17:52.000Z,5.58
2019-04-11T20:19:27.355Z,4.70
2019-04-11T20:21:07.324Z,4.53
2019-04-11T20:22:40.461Z,5.97
2019-04-11T20:24:15.668Z,4.95
2019-04-11T20:25:50.441Z,4.45
2019-04-11T20:27:25.319Z,4.20
2019-04-11T20:29:00.675Z,4.90
2019-04-11T20:30:35.716Z,5.08
2019-04-11T20:32:11.178Z,4.37
2019-04-11T20:33:46.375Z,4.65
2019-04-11T20:35:28.798Z,4.83
2019-04-11T20:36:57.661Z,5.75
2019-04-11T20:38:32.775Z,4.20
2019-04-11T20:40:07.670Z,6.50
2019-04-11T20:41:42.449Z,5.05
2019-04-11T20:43:17.318Z,5.10
2019-04-11T20:44:52.089Z,5.28
2019-04-11T20:46:29.186Z,4.87
2019-04-11T20:48:03.482Z,5.62
2019-04-11T20:49:48.301Z,4.92
2019-04-11T20:51:23.327Z,5.72
2019-04-11T20:53:03.218Z,5.47
2019-04-11T20:54:35.967Z,5.92
2019-04-11T20:56:23.383Z,4.45
2019-04-11T20:57:48.102Z,4.50
2019-04-11T20:59:33.985Z,4.30
2019-04-11T21:01:00.696Z,4.08
2019-04-11T21:02:35.453Z,5.47
2019-04-11T21:04:10.543Z,4.28
2019-04-11T21:05:45.339Z,5.47
2019-04-11T21:07:20.221Z,4.12
2019-04-11T21:08:54.994Z,6.12
2019-04-11T21:10:31.953Z,4.90
2019-04-11T21:12:07.512Z,4.47
2019-04-11T21:13:43.235Z,4.50
2019-04-11T21:15:18.009Z,4.67
2019-04-11T21:16:52.785Z,4.53
2019-04-11T21:18:27.599Z,4.33
2019-04-11T21:20:02.444Z,4.58
2019-04-11T21:21:37.465Z,4.15
2019-04-11T21:23:23.777Z,4.47
2019-04-11T21:24:49.139Z,6.45
2019-04-11T21:26:24.221Z,5.05
2019-04-11T21:27:59.993Z,4.47
2019-04-11T21:29:35.009Z,5.35
2019-04-11T21:31:10.086Z,6.03
2019-04-11T21:32:44.861Z,6.25
2019-04-11T21:34:19.626Z,4.08
2019-04-11T21:35:54.397Z,4.75
2019-04-11T21:37:30.153Z,5.62
2019-04-11T21:39:07.612Z,5.25
2019-04-11T21:40:42.391Z,5.17
2019-04-11T21:42:17.427Z,5.35
2019-04-11T21:43:52.727Z,5.28
2019-04-11T21:45:27.516Z,4.40
2019-04-11T21:47:02.560Z,4.65
2019-04-11T21:48:37.580Z,5.95
2019-04-11T21:50:13.289Z,6.03
2019-04-11T21:51:48.300Z,6.05
2019-04-11T21:53:23.094Z,5.35
2019-04-11T21:54:58.170Z,4.45
2019-04-11T21:56:33.519Z,5.78
2019-04-11T21:58:08.554Z,5.40
2019-04-11T21:59:43.337Z,4.67
2019-04-11T22:01:21.936Z,4.80
2019-04-11T22:02:56.324Z,5.12
2019-04-11T22:04:31.270Z,4.70
2019-04-11T22:06:06.326Z,5.05
2019-04-11T22:07:41.349Z,5.65
2019-04-11T22:09:16.803Z,5.58
2019-04-11T22:10:51.587Z,5.58
2019-04-11T22:12:26.364Z,4.45
2019-04-11T22:14:01.472Z,4.33